For quick login in and fast entrance.
M’enregistrer FAQ Connexion 
Poster un nouveau sujet Répondre au sujet  [ 238 messages ]  Aller à la page 1, 2, 3, 4, 5 ... 16  Suivante

Dim 05 Mai 2019 18:36

 Atterrissage d'un Sukhoi SuperJet de Aeroflot en feu à Moscou
MessagePosté: Dim 05 Mai 2019 18:36 
Hors ligne
Pilote de Funiculaire
Pilote de Funiculaire
Avatar de l’utilisateur

Inscription: Lun 08 Juin 2009 18:35
Infos pour le moment :

Après son décollage de l'aéroport Sheremetyevo de Moscou, un Sukhoi Superjet 100-95B d'Aeroflot a déclaré un problème, avant d'atterrir en urgence à l'aéroport. (Vol: SU1492).

Les images de son atterrissage :




_________________
Un voyage en avion, c'est une manière laïque de croire au ciel et de s'en remettre à lui (Bernard Pivot)


  
home Haut
 Profil  
Répondre en citant le message  
Aider le Site avec PayPal

Dim 05 Mai 2019 18:46

 Re: Atterrissage d'un Sukhoi Superjet en feu à Moscou
MessagePosté: Dim 05 Mai 2019 18:46 
Hors ligne
Pilote de Funiculaire
Pilote de Funiculaire
Avatar de l’utilisateur

Inscription: Lun 08 Juin 2009 18:35
Traduction :

Citation:
Un Aeroflot Sukhoi Superjet 100-95, immatriculation RA-89098 effectuant le vol SU-1492 de Moscou Sheremetyevo à Mourmansk (Russie) avec 76 personnes à bord, a quitté la piste de Sheremetyevo 24C à 18h04 (15h0Z), mais a stoppé la montée au FL090. , déclaré en état d’urgence et renvoyé à Sherementyevo pour un atterrissage sur la piste 24L à 18h31 (15h31). Au cours du déploiement, l'aéronef a pris feu, a dévié de la piste et s'est immobilisé sur l'herbe adjacente à la piste. L'avion a brûlé. 10 occupants ont péri dans l'accident (Pas confirmé!), la plupart des occupants ont pu évacuer l'avion, on ignore combien de blessures ont été subies.


Metars:
UUEE 051600Z 16004MPS 9999 -SHRA SCT055CB 16/11 Q1012 R24L/290045 R24C/290045 NOSIG=
UUEE 051530Z 17007MPS 9999 SCT060CB 17/11 Q1012 R24L/290045 R24C/290045 NOSIG=
UUEE 051500Z 14003G08MPS 9999 FEW060CB 17/13 Q1012 R24L/290045 R24C/290045 NOSIG=
UUEE 051430Z 16003MPS 130V230 9999 FEW060CB 17/13 Q1011 R24L/290045 R24C/290045 NOSIG=
UUEE 051400Z 19004G09MPS 9999 FEW060CB 17/12 Q1012 WS R24L R24L/290045 R24C/290045 NOSIG=
UUEE 051330Z 25006MPS 9999 SCT053CB 16/11 Q1012 R24L/290045 R24C/290045 NOSIG=
UUEE 051300Z 18006G15MPS 9999 -SHRA SCT053CB 20/08 Q1011 R24L/CLRD62 R24C/CLRD62 NOSIG=
UUEE 051230Z 15006MPS 9999 SCT053CB 21/08 Q1011 R24L/CLRD62 R24C/CLRD62 NOSIG=


_________________
Un voyage en avion, c'est une manière laïque de croire au ciel et de s'en remettre à lui (Bernard Pivot)


Modifié en dernier par tibo m le Dim 05 Mai 2019 18:49, modifié 1 fois.

  
home Haut
 Profil  
Répondre en citant le message  

Dim 05 Mai 2019 18:46

 Re: Atterrissage d'un Sukhoi Superjet en feu à Moscou
MessagePosté: Dim 05 Mai 2019 18:46 
Hors ligne
Amiral de l'Air
Avatar de l’utilisateur

Inscription: Mer 03 Juin 2009 15:15
Localisation: Près de Morlaix-Ploujean (LFRU)
Image

Image

https://twitter.com/wasy_invalid/status ... 2393626625

_________________
Image


  
home Haut
 Profil  
Répondre en citant le message  

Dim 05 Mai 2019 18:49

 Re: Atterrissage d'un Sukhoi Superjet en feu à Moscou
MessagePosté: Dim 05 Mai 2019 18:49 
Hors ligne
Principicule de Taxiway
Principicule de Taxiway

Inscription: Dim 06 Déc 2015 17:32
Nouveau bilan 1 mort et 10 blessés

_________________
"Ce que tu dis n'a aucun sens"


  
home Haut
 Profil  
Répondre en citant le message  

Dim 05 Mai 2019 18:51

 Re: Atterrissage d'un Sukhoi Superjet en feu à Moscou
MessagePosté: Dim 05 Mai 2019 18:51 
Hors ligne
Amiral de l'Air
Avatar de l’utilisateur

Inscription: Mer 03 Juin 2009 15:15
Localisation: Près de Morlaix-Ploujean (LFRU)
Date: dimanche 5 mai 2019
Heure: 18:30

Type/Sous-type: Sukhoi Superjet 100-95B
Compagnie: Aeroflot Russian International Airlines
Immatriculation: RA-89098
Numéro de série: 95135
Année de Fabrication: 2017

Equipage: victimes: 0 / à bord:
Passagers: victimes: 0 / à bord:
Total: victimes: 0 / à bord:

Dégâts : Perte Totale
Conséquences: Written off (damaged beyond repair)

Lieu de l'accident: Moskva-Sheremetyevo Airport (SVO) ( Fédération de Russie)
Phase de vol: A l'atterrissage (LDG)
Nature: Transport de Passagers Nat.

Aéroport de départ: Moskva-Sheremetyevo Airport (SVO/UUEE), Fédération de Russie
Aéroport de destination: Murmansk Airport (MMK/ULMM), Fédération de Russie
Numéro de vol: SU1492

Le vol 1492 d’Aeroflot, un Sukhoi Superjet 100-95B, est revenu atterrir à l’aéroport de Moscou Sheremetyevo en Russie. Un incendie a éclaté lors de l'atterrissage et tous les passagers ont été évacués sur la piste.

L'avion avait décollé de la piste 24C de l'aéroport de Sheremetyevo à 18h03, heure locale, sur un vol régulier à destination de Mourmansk. L'avion a fait demi-tour et a atterri à 18h30. Des vidéos de l'avion montrent un incendie à gauche lors de l'atterrissage.

https://aviation-safety.net/database/re ... 20190505-0

Image

_________________
Image


  
home Haut
 Profil  
Répondre en citant le message  

Dim 05 Mai 2019 18:54

 Re: Atterrissage d'un Sukhoi Superjet en feu à Moscou
MessagePosté: Dim 05 Mai 2019 18:54 
Hors ligne
Amiral de l'Air
Avatar de l’utilisateur

Inscription: Mer 03 Juin 2009 15:15
Localisation: Près de Morlaix-Ploujean (LFRU)
https://twitter.com/DMorsky/status/1125080970837790721

_________________
Image


  
home Haut
 Profil  
Répondre en citant le message  

Dim 05 Mai 2019 19:03

 Re: Atterrissage d'un Sukhoi Superjet en feu à Moscou
MessagePosté: Dim 05 Mai 2019 19:03 
Hors ligne
Amiral de l'Air
Avatar de l’utilisateur

Inscription: Mer 03 Juin 2009 15:15
Localisation: Près de Morlaix-Ploujean (LFRU)

_________________
Image


  
home Haut
 Profil  
Répondre en citant le message  

Dim 05 Mai 2019 19:12

 Re: Atterrissage d'un Sukhoi Superjet en feu à Moscou
MessagePosté: Dim 05 Mai 2019 19:12 
Hors ligne
Amiral de l'Air
Avatar de l’utilisateur

Inscription: Mer 03 Juin 2009 15:15
Localisation: Près de Morlaix-Ploujean (LFRU)
Citation:
https://www.themoscowtimes.com/2019/05/ ... ard-a65490

Une personne a été tuée et au moins cinq autres blessées lorsqu'un avion de la compagnie russe Russian Aeroflot Sukhoi Superjet a atterri d'urgence à l'aéroport de Moscou Sheremetyevo en raison d'un incendie à bord, ont rapporté les agences de presse Russia n.

L'agence de presse gouvernementale TASS, citant une source, a déclaré qu'au moins une personne avait été tuée. Les agences ont communiqué divers chiffres sur le nombre de blessés - de cinq à plus de dix.

Les enquêteurs ont ouvert un dossier d'infractions en matière de sécurité qui ont fait plus de deux morts, a rapporté l'agence de presse gouvernementale RIA Novosti.

RIA Novosti a déclaré qu'il y avait 78 passagers dans l'avion.

La télévision publique russe a montré un avion en train d'atterrir avec la queue en feu.



_________________
Image


  
home Haut
 Profil  
Répondre en citant le message  

Dim 05 Mai 2019 19:36

 Re: Atterrissage d'un Sukhoi Superjet en feu à Moscou
MessagePosté: Dim 05 Mai 2019 19:36 
Hors ligne
Pilote de Funiculaire
Pilote de Funiculaire
Avatar de l’utilisateur

Inscription: Lun 08 Juin 2009 18:35

_________________
Un voyage en avion, c'est une manière laïque de croire au ciel et de s'en remettre à lui (Bernard Pivot)


Modifié en dernier par tibo m le Dim 05 Mai 2019 19:39, modifié 1 fois.

  
home Haut
 Profil  
Répondre en citant le message  

Dim 05 Mai 2019 19:38

 Re: Atterrissage d'un Sukhoi Superjet en feu à Moscou
MessagePosté: Dim 05 Mai 2019 19:38 
Hors ligne
Novice Aérien
Novice Aérien

Inscription: Lun 07 Juil 2014 18:53
Il y a très clairement un grand retard dans l’intervention des équipes de pompiers. Ils auraient dû déjà être présents à l’atterrissage.


  
home Haut
 Profil  
Répondre en citant le message  

Dim 05 Mai 2019 19:38

 Re: Atterrissage d'un Sukhoi Superjet en feu à Moscou
MessagePosté: Dim 05 Mai 2019 19:38 
Hors ligne
Principicule de Taxiway
Principicule de Taxiway

Inscription: Dim 06 Déc 2015 17:32

Le Superjet aurait été frappé par la foudre selon les médias russes

_________________
"Ce que tu dis n'a aucun sens"


  
home Haut
 Profil  
Répondre en citant le message  

Dim 05 Mai 2019 19:39

 Re: Atterrissage d'un Sukhoi Superjet en feu à Moscou
MessagePosté: Dim 05 Mai 2019 19:39 
Hors ligne
Principicule de Taxiway
Principicule de Taxiway

Inscription: Dim 06 Déc 2015 17:32
Un nouveau bilan de l'agence TASS parle de 13 morts

_________________
"Ce que tu dis n'a aucun sens"


  
home Haut
 Profil  
Répondre en citant le message  

Dim 05 Mai 2019 19:46

 Re: Atterrissage d'un Sukhoi Superjet en feu à Moscou
MessagePosté: Dim 05 Mai 2019 19:46 
Hors ligne
Pilote de Funiculaire
Pilote de Funiculaire
Avatar de l’utilisateur

Inscription: Lun 08 Juin 2009 18:35
Dub Image a écrit:
Il y a très clairement un grand retard dans l’intervention des équipes de pompiers. Ils auraient dû déjà être présents à l’atterrissage.


C'est vrai que les passagers sont bien seuls !!! Et d'autres vidéos ci-dessus !! L'avion avait déclaré un problème et un retour donc l'aéroport était informé de l’atterrissage en urgence. :roll:


_________________
Un voyage en avion, c'est une manière laïque de croire au ciel et de s'en remettre à lui (Bernard Pivot)


  
home Haut
 Profil  
Répondre en citant le message  

Dim 05 Mai 2019 19:51

 Re: Atterrissage d'un Sukhoi Superjet en feu à Moscou
MessagePosté: Dim 05 Mai 2019 19:51 
Hors ligne
Novice Aérien
Novice Aérien

Inscription: Mer 04 Nov 2015 13:09
Image

Image

Image


Modifié en dernier par Kalinka le Dim 05 Mai 2019 20:06, modifié 1 fois.

  
home Haut
 Profil  
Répondre en citant le message  

Dim 05 Mai 2019 20:06

 Re: Atterrissage d'un Sukhoi Superjet en feu à Moscou
MessagePosté: Dim 05 Mai 2019 20:06 
Hors ligne
Gonfleur d'Hélice
Gonfleur d'Hélice

Inscription: Lun 29 Aoû 2011 19:26
Localisation: France Nord-Ouest
Dub Image a écrit:
Il y a très clairement un grand retard dans l’intervention des équipes de pompiers. Ils auraient dû déjà être présents à l’atterrissage.

Oui même réflexion, très étonnant car l'urgence a été déclarée donc les équipes devaient être sensiblement déjà positionnées à proximité du point ou l'avion doit s'arréter ?
il a quelque chose qui n'a pas fonctionné !

_________________
Dans l'aviation, une initiative est une indiscipline qui à bien tournée...


  
home Haut
 Profil  
Répondre en citant le message  
Afficher les messages postés depuis:  Trier par  
Poster un nouveau sujet Répondre au sujet  [ 238 messages ]  Aller à la page 1, 2, 3, 4, 5 ... 16  Suivante

Heures au format UTC + 1 heure [ Heure d’été ]


Qui est en ligne

Utilisateurs parcourant ce forum: Aucun utilisateur enregistré et 3 invités


Vous ne pouvez pas poster de nouveaux sujets
Vous ne pouvez pas répondre aux sujets
Vous ne pouvez pas éditer vos messages
Vous ne pouvez pas supprimer vos messages

Aller à:  
Flux RSS Flux RSS Liste des flux Liste des flux
0 Développé par phpBB® Forum Software © phpBB Group
Traduction par phpBB-fr.com
phpBB SEO